sensor_id;sensor_type;location;lat;lon;timestamp;P1;durP1;ratioP1;P2;durP2;ratioP2
62796;SDS011;48839;48.546;-4.178;2024-02-14T00:01:11;15.40;;;2.95;;
62796;SDS011;48839;48.546;-4.178;2024-02-14T00:06:41;14.57;;;3.50;;
62796;SDS011;48839;48.546;-4.178;2024-02-14T00:12:11;15.07;;;3.55;;
62796;SDS011;48839;48.546;-4.178;2024-02-14T00:17:41;24.27;;;3.80;;
62796;SDS011;48839;48.546;-4.178;2024-02-14T00:23:11;18.83;;;3.53;;
62796;SDS011;48839;48.546;-4.178;2024-02-14T00:28:41;25.02;;;4.47;;
62796;SDS011;48839;48.546;-4.178;2024-02-14T00:34:10;16.20;;;3.30;;
62796;SDS011;48839;48.546;-4.178;2024-02-14T00:39:41;16.90;;;3.78;;
62796;SDS011;48839;48.546;-4.178;2024-02-14T00:45:10;17.80;;;3.78;;
62796;SDS011;48839;48.546;-4.178;2024-02-14T00:50:40;16.77;;;2.90;;
62796;SDS011;48839;48.546;-4.178;2024-02-14T00:56:10;21.50;;;3.95;;
62796;SDS011;48839;48.546;-4.178;2024-02-14T01:01:40;29.67;;;6.50;;
62796;SDS011;48839;48.546;-4.178;2024-02-14T01:07:10;25.35;;;5.82;;
62796;SDS011;48839;48.546;-4.178;2024-02-14T01:12:39;15.18;;;4.05;;
62796;SDS011;48839;48.546;-4.178;2024-02-14T01:18:09;20.90;;;5.75;;
62796;SDS011;48839;48.546;-4.178;2024-02-14T01:23:38;15.75;;;5.55;;
62796;SDS011;48839;48.546;-4.178;2024-02-14T01:29:08;13.32;;;3.70;;
62796;SDS011;48839;48.546;-4.178;2024-02-14T01:34:38;33.67;;;14.13;;
62796;SDS011;48839;48.546;-4.178;2024-02-14T01:40:08;35.60;;;15.43;;
62796;SDS011;48839;48.546;-4.178;2024-02-14T01:45:37;21.83;;;10.85;;
62796;SDS011;48839;48.546;-4.178;2024-02-14T01:51:08;49.47;;;25.60;;
62796;SDS011;48839;48.546;-4.178;2024-02-14T01:56:39;17.33;;;7.73;;
62796;SDS011;48839;48.546;-4.178;2024-02-14T02:02:09;12.75;;;5.47;;
62796;SDS011;48839;48.546;-4.178;2024-02-14T02:07:38;11.02;;;2.67;;
62796;SDS011;48839;48.546;-4.178;2024-02-14T02:13:11;10.20;;;2.10;;
62796;SDS011;48839;48.546;-4.178;2024-02-14T02:18:40;13.60;;;2.00;;
62796;SDS011;48839;48.546;-4.178;2024-02-14T02:24:10;19.83;;;3.08;;
62796;SDS011;48839;48.546;-4.178;2024-02-14T02:29:40;12.43;;;3.38;;
62796;SDS011;48839;48.546;-4.178;2024-02-14T02:35:10;12.45;;;2.80;;
62796;SDS011;48839;48.546;-4.178;2024-02-14T02:40:39;16.05;;;3.00;;
62796;SDS011;48839;48.546;-4.178;2024-02-14T02:46:09;22.35;;;4.75;;
62796;SDS011;48839;48.546;-4.178;2024-02-14T02:51:39;20.33;;;2.92;;
62796;SDS011;48839;48.546;-4.178;2024-02-14T02:57:09;24.88;;;3.85;;
62796;SDS011;48839;48.546;-4.178;2024-02-14T03:02:39;27.55;;;3.30;;
62796;SDS011;48839;48.546;-4.178;2024-02-14T03:08:12;17.95;;;3.53;;
62796;SDS011;48839;48.546;-4.178;2024-02-14T03:13:44;26.30;;;3.88;;
62796;SDS011;48839;48.546;-4.178;2024-02-14T03:19:14;24.95;;;4.38;;
62796;SDS011;48839;48.546;-4.178;2024-02-14T03:24:43;27.38;;;3.45;;
62796;SDS011;48839;48.546;-4.178;2024-02-14T03:30:15;28.83;;;3.88;;
62796;SDS011;48839;48.546;-4.178;2024-02-14T03:35:45;23.98;;;4.97;;
62796;SDS011;48839;48.546;-4.178;2024-02-14T03:41:16;31.23;;;4.68;;
62796;SDS011;48839;48.546;-4.178;2024-02-14T03:46:46;25.73;;;4.60;;
62796;SDS011;48839;48.546;-4.178;2024-02-14T03:52:16;30.60;;;3.67;;
62796;SDS011;48839;48.546;-4.178;2024-02-14T03:57:51;22.30;;;2.70;;
62796;SDS011;48839;48.546;-4.178;2024-02-14T04:03:21;15.90;;;3.30;;
62796;SDS011;48839;48.546;-4.178;2024-02-14T04:08:50;21.07;;;3.73;;
62796;SDS011;48839;48.546;-4.178;2024-02-14T04:14:20;22.00;;;3.92;;
62796;SDS011;48839;48.546;-4.178;2024-02-14T04:19:50;26.33;;;3.73;;
62796;SDS011;48839;48.546;-4.178;2024-02-14T04:25:20;28.45;;;5.18;;
62796;SDS011;48839;48.546;-4.178;2024-02-14T04:30:49;30.88;;;4.82;;
62796;SDS011;48839;48.546;-4.178;2024-02-14T04:36:19;21.38;;;2.83;;
62796;SDS011;48839;48.546;-4.178;2024-02-14T04:41:49;23.83;;;4.20;;
62796;SDS011;48839;48.546;-4.178;2024-02-14T04:47:18;28.20;;;4.10;;
62796;SDS011;48839;48.546;-4.178;2024-02-14T04:52:49;25.10;;;6.20;;
62796;SDS011;48839;48.546;-4.178;2024-02-14T04:58:19;28.00;;;7.25;;
62796;SDS011;48839;48.546;-4.178;2024-02-14T05:03:48;71.27;;;24.73;;
62796;SDS011;48839;48.546;-4.178;2024-02-14T05:09:18;41.27;;;12.03;;
62796;SDS011;48839;48.546;-4.178;2024-02-14T05:14:48;126.82;;;49.72;;
62796;SDS011;48839;48.546;-4.178;2024-02-14T05:20:18;56.70;;;19.33;;
62796;SDS011;48839;48.546;-4.178;2024-02-14T05:25:47;72.97;;;28.25;;
62796;SDS011;48839;48.546;-4.178;2024-02-14T05:31:28;56.88;;;20.83;;
62796;SDS011;48839;48.546;-4.178;2024-02-14T05:37:11;33.83;;;8.48;;
62796;SDS011;48839;48.546;-4.178;2024-02-14T05:42:41;27.10;;;8.02;;
62796;SDS011;48839;48.546;-4.178;2024-02-14T05:48:12;30.75;;;9.18;;
62796;SDS011;48839;48.546;-4.178;2024-02-14T05:53:42;28.65;;;7.65;;
62796;SDS011;48839;48.546;-4.178;2024-02-14T05:59:12;24.98;;;4.53;;
62796;SDS011;48839;48.546;-4.178;2024-02-14T06:04:41;20.52;;;4.32;;
62796;SDS011;48839;48.546;-4.178;2024-02-14T06:10:12;21.48;;;5.38;;
62796;SDS011;48839;48.546;-4.178;2024-02-14T06:15:41;23.65;;;3.92;;
62796;SDS011;48839;48.546;-4.178;2024-02-14T06:21:11;23.30;;;5.90;;
62796;SDS011;48839;48.546;-4.178;2024-02-14T06:26:41;19.45;;;3.83;;
62796;SDS011;48839;48.546;-4.178;2024-02-14T06:32:13;28.40;;;4.20;;
62796;SDS011;48839;48.546;-4.178;2024-02-14T06:37:43;19.27;;;3.83;;
62796;SDS011;48839;48.546;-4.178;2024-02-14T06:43:13;22.55;;;2.90;;
62796;SDS011;48839;48.546;-4.178;2024-02-14T06:48:42;17.17;;;2.80;;
62796;SDS011;48839;48.546;-4.178;2024-02-14T06:54:12;20.80;;;3.10;;
62796;SDS011;48839;48.546;-4.178;2024-02-14T06:59:41;21.58;;;3.95;;
62796;SDS011;48839;48.546;-4.178;2024-02-14T07:05:11;19.45;;;4.07;;
62796;SDS011;48839;48.546;-4.178;2024-02-14T07:10:43;16.58;;;3.67;;
62796;SDS011;48839;48.546;-4.178;2024-02-14T07:16:12;17.02;;;2.80;;
62796;SDS011;48839;48.546;-4.178;2024-02-14T07:21:42;12.35;;;2.88;;
62796;SDS011;48839;48.546;-4.178;2024-02-14T07:27:12;10.93;;;2.92;;
62796;SDS011;48839;48.546;-4.178;2024-02-14T07:32:42;17.77;;;3.42;;
62796;SDS011;48839;48.546;-4.178;2024-02-14T07:38:12;23.40;;;4.30;;
62796;SDS011;48839;48.546;-4.178;2024-02-14T07:43:42;12.23;;;3.45;;
62796;SDS011;48839;48.546;-4.178;2024-02-14T07:49:12;20.48;;;5.28;;
62796;SDS011;48839;48.546;-4.178;2024-02-14T07:54:41;18.88;;;3.90;;
62796;SDS011;48839;48.546;-4.178;2024-02-14T08:00:11;22.85;;;3.30;;
62796;SDS011;48839;48.546;-4.178;2024-02-14T08:05:47;22.88;;;5.10;;
62796;SDS011;48839;48.546;-4.178;2024-02-14T08:11:16;14.85;;;4.38;;
62796;SDS011;48839;48.546;-4.178;2024-02-14T08:16:46;24.97;;;6.87;;
62796;SDS011;48839;48.546;-4.178;2024-02-14T08:22:16;41.30;;;15.67;;
62796;SDS011;48839;48.546;-4.178;2024-02-14T08:27:46;29.20;;;10.33;;
62796;SDS011;48839;48.546;-4.178;2024-02-14T08:33:16;17.45;;;5.00;;
62796;SDS011;48839;48.546;-4.178;2024-02-14T08:38:45;19.33;;;4.22;;
62796;SDS011;48839;48.546;-4.178;2024-02-14T08:44:15;21.63;;;4.05;;
62796;SDS011;48839;48.546;-4.178;2024-02-14T08:49:46;19.42;;;3.92;;
62796;SDS011;48839;48.546;-4.178;2024-02-14T08:55:15;22.35;;;3.17;;
62796;SDS011;48839;48.546;-4.178;2024-02-14T09:00:47;20.25;;;4.15;;
62796;SDS011;48839;48.546;-4.178;2024-02-14T09:06:17;19.17;;;3.87;;
62796;SDS011;48839;48.546;-4.178;2024-02-14T09:11:47;30.35;;;5.10;;
62796;SDS011;48839;48.546;-4.178;2024-02-14T09:17:17;13.75;;;2.25;;
62796;SDS011;48839;48.546;-4.178;2024-02-14T09:22:46;12.85;;;2.85;;
62796;SDS011;48839;48.546;-4.178;2024-02-14T09:28:16;11.18;;;2.40;;
62796;SDS011;48839;48.546;-4.178;2024-02-14T09:33:46;14.57;;;2.50;;
62796;SDS011;48839;48.546;-4.178;2024-02-14T09:39:16;10.27;;;2.03;;
62796;SDS011;48839;48.546;-4.178;2024-02-14T09:50:42;8.73;;;2.78;;
62796;SDS011;48839;48.546;-4.178;2024-02-14T09:56:12;14.63;;;2.47;;
62796;SDS011;48839;48.546;-4.178;2024-02-14T10:01:43;16.20;;;3.47;;
62796;SDS011;48839;48.546;-4.178;2024-02-14T10:07:14;12.43;;;3.55;;
62796;SDS011;48839;48.546;-4.178;2024-02-14T10:12:43;18.63;;;4.97;;
62796;SDS011;48839;48.546;-4.178;2024-02-14T10:18:14;28.40;;;7.18;;
62796;SDS011;48839;48.546;-4.178;2024-02-14T10:23:45;27.05;;;7.50;;
62796;SDS011;48839;48.546;-4.178;2024-02-14T10:29:20;30.00;;;4.05;;
62796;SDS011;48839;48.546;-4.178;2024-02-14T10:34:50;23.55;;;3.95;;
62796;SDS011;48839;48.546;-4.178;2024-02-14T10:40:19;24.15;;;4.45;;
62796;SDS011;48839;48.546;-4.178;2024-02-14T10:45:49;14.52;;;3.13;;
62796;SDS011;48839;48.546;-4.178;2024-02-14T10:51:21;18.77;;;2.83;;
62796;SDS011;48839;48.546;-4.178;2024-02-14T10:56:51;22.48;;;3.78;;
62796;SDS011;48839;48.546;-4.178;2024-02-14T11:02:23;25.98;;;4.40;;
62796;SDS011;48839;48.546;-4.178;2024-02-14T11:07:53;21.17;;;3.38;;
62796;SDS011;48839;48.546;-4.178;2024-02-14T11:13:29;21.83;;;6.00;;
62796;SDS011;48839;48.546;-4.178;2024-02-14T11:19:09;30.98;;;9.45;;
62796;SDS011;48839;48.546;-4.178;2024-02-14T11:24:38;45.53;;;17.23;;
62796;SDS011;48839;48.546;-4.178;2024-02-14T11:30:08;45.90;;;18.08;;
62796;SDS011;48839;48.546;-4.178;2024-02-14T11:35:40;17.67;;;3.10;;
62796;SDS011;48839;48.546;-4.178;2024-02-14T11:41:10;12.05;;;3.05;;
62796;SDS011;48839;48.546;-4.178;2024-02-14T11:46:40;19.53;;;3.47;;
62796;SDS011;48839;48.546;-4.178;2024-02-14T11:52:11;13.20;;;3.58;;
62796;SDS011;48839;48.546;-4.178;2024-02-14T11:57:42;12.13;;;2.83;;
62796;SDS011;48839;48.546;-4.178;2024-02-14T12:03:12;8.15;;;2.28;;
62796;SDS011;48839;48.546;-4.178;2024-02-14T12:08:42;6.90;;;1.60;;
62796;SDS011;48839;48.546;-4.178;2024-02-14T12:14:12;5.57;;;1.42;;
62796;SDS011;48839;48.546;-4.178;2024-02-14T12:19:42;4.60;;;1.90;;
62796;SDS011;48839;48.546;-4.178;2024-02-14T12:25:12;9.05;;;2.38;;
62796;SDS011;48839;48.546;-4.178;2024-02-14T12:30:43;9.98;;;1.80;;
62796;SDS011;48839;48.546;-4.178;2024-02-14T12:36:13;7.22;;;1.88;;
62796;SDS011;48839;48.546;-4.178;2024-02-14T12:41:43;6.35;;;1.50;;
62796;SDS011;48839;48.546;-4.178;2024-02-14T12:47:13;5.82;;;1.50;;
62796;SDS011;48839;48.546;-4.178;2024-02-14T12:52:42;13.50;;;3.40;;
62796;SDS011;48839;48.546;-4.178;2024-02-14T12:58:12;7.70;;;2.22;;
62796;SDS011;48839;48.546;-4.178;2024-02-14T13:03:42;7.32;;;1.60;;
62796;SDS011;48839;48.546;-4.178;2024-02-14T13:09:12;4.93;;;1.30;;
62796;SDS011;48839;48.546;-4.178;2024-02-14T13:14:42;4.25;;;1.45;;
62796;SDS011;48839;48.546;-4.178;2024-02-14T13:20:13;6.22;;;1.50;;
62796;SDS011;48839;48.546;-4.178;2024-02-14T13:25:43;5.07;;;2.92;;
62796;SDS011;48839;48.546;-4.178;2024-02-14T13:31:13;10.18;;;3.45;;
62796;SDS011;48839;48.546;-4.178;2024-02-14T13:36:42;13.95;;;5.63;;
62796;SDS011;48839;48.546;-4.178;2024-02-14T13:42:12;10.23;;;6.45;;
62796;SDS011;48839;48.546;-4.178;2024-02-14T13:47:42;28.63;;;16.17;;
62796;SDS011;48839;48.546;-4.178;2024-02-14T13:53:18;5.78;;;4.90;;
62796;SDS011;48839;48.546;-4.178;2024-02-14T13:58:48;2.65;;;1.42;;
62796;SDS011;48839;48.546;-4.178;2024-02-14T14:04:17;3.45;;;1.15;;
62796;SDS011;48839;48.546;-4.178;2024-02-14T14:09:47;3.88;;;1.13;;
62796;SDS011;48839;48.546;-4.178;2024-02-14T14:15:16;4.53;;;1.17;;
62796;SDS011;48839;48.546;-4.178;2024-02-14T14:20:46;2.05;;;0.88;;
62796;SDS011;48839;48.546;-4.178;2024-02-14T14:26:16;0.93;;;0.65;;
62796;SDS011;48839;48.546;-4.178;2024-02-14T14:31:45;7.07;;;1.33;;
62796;SDS011;48839;48.546;-4.178;2024-02-14T14:37:15;2.88;;;1.20;;
62796;SDS011;48839;48.546;-4.178;2024-02-14T14:42:45;2.05;;;1.00;;
62796;SDS011;48839;48.546;-4.178;2024-02-14T14:48:15;2.22;;;0.95;;
62796;SDS011;48839;48.546;-4.178;2024-02-14T14:53:45;2.42;;;0.90;;
62796;SDS011;48839;48.546;-4.178;2024-02-14T14:59:15;2.17;;;0.75;;
62796;SDS011;48839;48.546;-4.178;2024-02-14T15:04:46;2.00;;;1.00;;
62796;SDS011;48839;48.546;-4.178;2024-02-14T15:10:15;2.33;;;0.95;;
62796;SDS011;48839;48.546;-4.178;2024-02-14T15:15:45;1.87;;;0.90;;
62796;SDS011;48839;48.546;-4.178;2024-02-14T15:21:15;0.80;;;0.80;;
62796;SDS011;48839;48.546;-4.178;2024-02-14T15:26:45;1.53;;;0.80;;
62796;SDS011;48839;48.546;-4.178;2024-02-14T15:29:17;2.17;;;1.15;;
62796;SDS011;48839;48.546;-4.178;2024-02-14T15:32:02;1.33;;;1.23;;
62796;SDS011;48839;48.546;-4.178;2024-02-14T15:34:48;0.75;;;0.75;;
62796;SDS011;48839;48.546;-4.178;2024-02-14T15:37:14;1.77;;;1.30;;
62796;SDS011;48839;48.546;-4.178;2024-02-14T15:39:42;1.02;;;1.00;;
62796;SDS011;48839;48.546;-4.178;2024-02-14T15:42:09;2.53;;;1.42;;
62796;SDS011;48839;48.546;-4.178;2024-02-14T15:44:36;3.10;;;2.90;;
62796;SDS011;48839;48.546;-4.178;2024-02-14T15:47:02;2.17;;;1.98;;
62796;SDS011;48839;48.546;-4.178;2024-02-14T15:49:28;2.63;;;2.42;;
62796;SDS011;48839;48.546;-4.178;2024-02-14T15:51:54;2.17;;;2.08;;
62796;SDS011;48839;48.546;-4.178;2024-02-14T15:54:21;5.32;;;4.88;;
62796;SDS011;48839;48.546;-4.178;2024-02-14T15:56:47;1.60;;;1.10;;
62796;SDS011;48839;48.546;-4.178;2024-02-14T15:59:13;3.17;;;2.70;;
62796;SDS011;48839;48.546;-4.178;2024-02-14T16:01:40;5.43;;;4.93;;
62796;SDS011;48839;48.546;-4.178;2024-02-14T16:04:07;2.13;;;1.30;;
62796;SDS011;48839;48.546;-4.178;2024-02-14T16:06:33;1.85;;;1.73;;
62796;SDS011;48839;48.546;-4.178;2024-02-14T16:09:00;2.75;;;2.10;;
62796;SDS011;48839;48.546;-4.178;2024-02-14T16:11:30;2.28;;;1.08;;
62796;SDS011;48839;48.546;-4.178;2024-02-14T16:13:56;2.47;;;1.85;;
62796;SDS011;48839;48.546;-4.178;2024-02-14T16:16:25;1.23;;;1.05;;
62796;SDS011;48839;48.546;-4.178;2024-02-14T16:18:56;3.50;;;1.42;;
62796;SDS011;48839;48.546;-4.178;2024-02-14T16:21:24;3.85;;;1.60;;
62796;SDS011;48839;48.546;-4.178;2024-02-14T16:23:50;1.80;;;1.67;;
62796;SDS011;48839;48.546;-4.178;2024-02-14T16:26:17;1.55;;;1.25;;
62796;SDS011;48839;48.546;-4.178;2024-02-14T16:28:43;2.58;;;2.00;;
62796;SDS011;48839;48.546;-4.178;2024-02-14T16:31:09;4.30;;;3.15;;
62796;SDS011;48839;48.546;-4.178;2024-02-14T16:33:36;3.50;;;1.77;;
62796;SDS011;48839;48.546;-4.178;2024-02-14T16:36:02;4.20;;;1.55;;
62796;SDS011;48839;48.546;-4.178;2024-02-14T16:38:28;2.60;;;1.83;;
62796;SDS011;48839;48.546;-4.178;2024-02-14T16:40:54;3.05;;;1.55;;
62796;SDS011;48839;48.546;-4.178;2024-02-14T16:43:20;3.10;;;1.50;;
62796;SDS011;48839;48.546;-4.178;2024-02-14T16:45:47;5.18;;;1.90;;
62796;SDS011;48839;48.546;-4.178;2024-02-14T16:48:13;2.20;;;1.50;;
62796;SDS011;48839;48.546;-4.178;2024-02-14T16:50:39;1.50;;;1.40;;
62796;SDS011;48839;48.546;-4.178;2024-02-14T16:53:05;3.80;;;1.40;;
62796;SDS011;48839;48.546;-4.178;2024-02-14T16:55:32;3.85;;;1.45;;
62796;SDS011;48839;48.546;-4.178;2024-02-14T16:57:58;2.72;;;1.38;;
62796;SDS011;48839;48.546;-4.178;2024-02-14T17:00:27;3.95;;;2.05;;
62796;SDS011;48839;48.546;-4.178;2024-02-14T17:02:53;4.28;;;1.70;;
62796;SDS011;48839;48.546;-4.178;2024-02-14T17:05:19;4.28;;;3.05;;
62796;SDS011;48839;48.546;-4.178;2024-02-14T17:07:48;6.63;;;2.20;;
62796;SDS011;48839;48.546;-4.178;2024-02-14T17:10:15;6.22;;;2.97;;
62796;SDS011;48839;48.546;-4.178;2024-02-14T17:12:41;6.82;;;2.47;;
62796;SDS011;48839;48.546;-4.178;2024-02-14T17:15:07;5.85;;;2.45;;
62796;SDS011;48839;48.546;-4.178;2024-02-14T17:17:35;8.10;;;2.63;;
62796;SDS011;48839;48.546;-4.178;2024-02-14T17:20:01;6.82;;;2.78;;
62796;SDS011;48839;48.546;-4.178;2024-02-14T17:22:27;5.85;;;3.20;;
62796;SDS011;48839;48.546;-4.178;2024-02-14T17:24:54;7.20;;;2.83;;
62796;SDS011;48839;48.546;-4.178;2024-02-14T17:36:21;9.75;;;5.22;;
62796;SDS011;48839;48.546;-4.178;2024-02-14T17:41:52;8.83;;;2.97;;
62796;SDS011;48839;48.546;-4.178;2024-02-14T17:47:22;9.38;;;3.03;;
62796;SDS011;48839;48.546;-4.178;2024-02-14T17:52:51;15.40;;;3.80;;
62796;SDS011;48839;48.546;-4.178;2024-02-14T17:58:22;9.80;;;4.10;;
62796;SDS011;48839;48.546;-4.178;2024-02-14T18:03:51;13.85;;;4.75;;
62796;SDS011;48839;48.546;-4.178;2024-02-14T18:09:22;18.25;;;4.00;;
62796;SDS011;48839;48.546;-4.178;2024-02-14T18:14:54;19.67;;;6.30;;
62796;SDS011;48839;48.546;-4.178;2024-02-14T18:20:24;17.10;;;4.85;;
62796;SDS011;48839;48.546;-4.178;2024-02-14T18:25:54;9.60;;;3.67;;
62796;SDS011;48839;48.546;-4.178;2024-02-14T18:31:24;29.98;;;18.48;;
62796;SDS011;48839;48.546;-4.178;2024-02-14T18:36:54;10.13;;;6.55;;
62796;SDS011;48839;48.546;-4.178;2024-02-14T18:42:24;9.38;;;5.40;;
62796;SDS011;48839;48.546;-4.178;2024-02-14T18:47:53;8.77;;;5.22;;
62796;SDS011;48839;48.546;-4.178;2024-02-14T18:53:23;6.13;;;3.08;;
62796;SDS011;48839;48.546;-4.178;2024-02-14T18:58:53;3.80;;;1.90;;
62796;SDS011;48839;48.546;-4.178;2024-02-14T19:04:23;2.95;;;1.60;;
62796;SDS011;48839;48.546;-4.178;2024-02-14T19:09:53;1.77;;;1.67;;
62796;SDS011;48839;48.546;-4.178;2024-02-14T19:15:22;1.90;;;1.80;;
62796;SDS011;48839;48.546;-4.178;2024-02-14T19:20:52;1.65;;;1.55;;
62796;SDS011;48839;48.546;-4.178;2024-02-14T19:26:22;1.87;;;1.37;;
62796;SDS011;48839;48.546;-4.178;2024-02-14T19:31:51;2.90;;;2.15;;
62796;SDS011;48839;48.546;-4.178;2024-02-14T19:37:22;1.85;;;1.63;;
62796;SDS011;48839;48.546;-4.178;2024-02-14T19:42:51;4.10;;;3.80;;
62796;SDS011;48839;48.546;-4.178;2024-02-14T19:48:21;3.78;;;2.95;;
62796;SDS011;48839;48.546;-4.178;2024-02-14T19:53:56;2.13;;;1.92;;
62796;SDS011;48839;48.546;-4.178;2024-02-14T19:59:25;4.18;;;3.75;;
62796;SDS011;48839;48.546;-4.178;2024-02-14T20:04:55;2.15;;;2.05;;
62796;SDS011;48839;48.546;-4.178;2024-02-14T20:10:25;3.85;;;3.53;;
62796;SDS011;48839;48.546;-4.178;2024-02-14T20:15:55;4.97;;;3.67;;
62796;SDS011;48839;48.546;-4.178;2024-02-14T20:21:24;6.85;;;4.95;;
62796;SDS011;48839;48.546;-4.178;2024-02-14T20:26:54;6.88;;;5.22;;
62796;SDS011;48839;48.546;-4.178;2024-02-14T20:32:24;3.10;;;2.47;;
62796;SDS011;48839;48.546;-4.178;2024-02-14T20:37:55;14.00;;;8.07;;
62796;SDS011;48839;48.546;-4.178;2024-02-14T20:43:26;27.08;;;17.35;;
62796;SDS011;48839;48.546;-4.178;2024-02-14T20:48:55;1.65;;;1.55;;
62796;SDS011;48839;48.546;-4.178;2024-02-14T20:54:25;2.58;;;1.42;;
62796;SDS011;48839;48.546;-4.178;2024-02-14T20:59:55;2.45;;;2.05;;
62796;SDS011;48839;48.546;-4.178;2024-02-14T21:05:24;2.93;;;1.90;;
62796;SDS011;48839;48.546;-4.178;2024-02-14T21:10:54;5.63;;;2.55;;
62796;SDS011;48839;48.546;-4.178;2024-02-14T21:16:24;8.13;;;2.38;;
62796;SDS011;48839;48.546;-4.178;2024-02-14T21:21:55;8.68;;;3.53;;
62796;SDS011;48839;48.546;-4.178;2024-02-14T21:27:25;7.90;;;3.28;;
62796;SDS011;48839;48.546;-4.178;2024-02-14T21:32:54;10.15;;;3.38;;
62796;SDS011;48839;48.546;-4.178;2024-02-14T21:38:24;9.10;;;2.70;;
62796;SDS011;48839;48.546;-4.178;2024-02-14T21:43:54;10.10;;;2.55;;
62796;SDS011;48839;48.546;-4.178;2024-02-14T21:49:24;11.77;;;3.57;;
62796;SDS011;48839;48.546;-4.178;2024-02-14T21:54:53;7.40;;;2.65;;
62796;SDS011;48839;48.546;-4.178;2024-02-14T22:00:24;7.80;;;2.90;;
62796;SDS011;48839;48.546;-4.178;2024-02-14T22:05:53;9.20;;;2.75;;
62796;SDS011;48839;48.546;-4.178;2024-02-14T22:11:23;7.18;;;2.55;;
62796;SDS011;48839;48.546;-4.178;2024-02-14T22:16:54;11.27;;;2.60;;
62796;SDS011;48839;48.546;-4.178;2024-02-14T22:22:26;9.35;;;2.08;;
62796;SDS011;48839;48.546;-4.178;2024-02-14T22:27:56;8.18;;;2.50;;
62796;SDS011;48839;48.546;-4.178;2024-02-14T22:33:26;14.95;;;5.85;;
62796;SDS011;48839;48.546;-4.178;2024-02-14T22:38:56;11.27;;;3.45;;
62796;SDS011;48839;48.546;-4.178;2024-02-14T22:44:26;12.07;;;4.53;;
62796;SDS011;48839;48.546;-4.178;2024-02-14T22:49:56;12.03;;;6.20;;
62796;SDS011;48839;48.546;-4.178;2024-02-14T22:55:26;13.27;;;5.32;;
62796;SDS011;48839;48.546;-4.178;2024-02-14T23:00:55;5.40;;;2.53;;
62796;SDS011;48839;48.546;-4.178;2024-02-14T23:06:25;6.73;;;4.80;;
62796;SDS011;48839;48.546;-4.178;2024-02-14T23:11:57;11.10;;;4.40;;
62796;SDS011;48839;48.546;-4.178;2024-02-14T23:17:27;10.80;;;5.22;;
62796;SDS011;48839;48.546;-4.178;2024-02-14T23:22:56;6.80;;;3.55;;
62796;SDS011;48839;48.546;-4.178;2024-02-14T23:28:26;7.13;;;2.97;;
62796;SDS011;48839;48.546;-4.178;2024-02-14T23:33:56;9.27;;;2.30;;
62796;SDS011;48839;48.546;-4.178;2024-02-14T23:39:25;9.40;;;3.45;;
62796;SDS011;48839;48.546;-4.178;2024-02-14T23:44:55;9.02;;;3.72;;
62796;SDS011;48839;48.546;-4.178;2024-02-14T23:50:26;5.28;;;2.83;;
62796;SDS011;48839;48.546;-4.178;2024-02-14T23:55:56;7.32;;;2.88;;
